Time;durP1;ratioP1;P1;durP2;ratioP2;P2;SDS_P1;SDS_P2;PMS_P1;PMS_P2;Temp;Humidity;BMP_temperature;BMP_pressure;BME280_temperature;BME280_humidity;BME280_pressure;Samples;Min_cycle;Max_cycle;Signal;HPM_P1;HPM_P2
2024/04/12 00:01:03;;;;;;;10.70;2.45;;;;;;;22.34;45.29;102962.81;5394071;26;20006;-66
2024/04/12 00:03:29;;;;;;;6.75;3.22;;;;;;;22.34;45.71;102953.75;5423449;26;20183;-66
2024/04/12 00:05:57;;;;;;;9.45;2.75;;;;;;;22.37;45.49;102954.31;5423806;26;19999;-66
2024/04/12 00:08:32;;;;;;;3.05;1.88;;;;;;;22.37;45.43;102958.91;5423254;26;20011;-66
2024/04/12 00:11:03;;;;;;;3.83;2.20;;;;;;;22.37;45.81;102959.78;5393792;26;20427;-66
2024/04/12 00:13:31;;;;;;;9.07;2.70;;;;;;;22.38;45.60;102966.13;5424750;26;20006;-65
2024/04/12 00:16:00;;;;;;;6.03;2.10;;;;;;;22.36;45.76;102957.22;5453222;26;20443;-65
2024/04/12 00:18:28;;;;;;;6.30;3.42;;;;;;;22.39;45.38;102963.22;5393704;26;20357;-65
2024/04/12 00:21:01;;;;;;;7.50;2.67;;;;;;;22.37;45.67;102962.53;5424199;26;20010;-66
2024/04/12 00:23:35;;;;;;;4.78;2.13;;;;;;;22.37;45.72;102962.53;5453100;26;19999;-65
2024/04/12 00:26:01;;;;;;;8.48;2.65;;;;;;;22.37;45.85;102959.78;5424232;26;20003;-66
2024/04/12 00:28:30;;;;;;;6.55;2.45;;;;;;;22.39;45.83;102963.22;5422713;26;19999;-68
2024/04/12 00:31:06;;;;;;;3.97;2.28;;;;;;;22.34;45.96;102943.69;5423807;26;20350;-65
2024/04/12 00:33:34;;;;;;;5.28;3.00;;;;;;;22.39;45.82;102949.56;5423164;26;20007;-65
2024/04/12 00:36:07;;;;;;;5.03;2.55;;;;;;;22.40;45.88;102947.69;5454301;26;20013;-66
2024/04/12 00:38:37;;;;;;;5.53;2.55;;;;;;;22.39;45.70;102952.28;5452148;26;20014;-65
2024/04/12 00:41:11;;;;;;;5.15;2.38;;;;;;;22.40;45.94;102947.69;5452584;26;20022;-67
2024/04/12 00:43:48;;;;;;;10.57;4.22;;;;;;;22.35;45.81;102939.09;5422639;26;19999;-66
2024/04/12 00:46:23;;;;;;;6.40;2.70;;;;;;;22.36;45.89;102947.13;5393899;26;20003;-66
2024/04/12 00:48:51;;;;;;;7.35;2.63;;;;;;;22.35;45.69;102937.25;5452358;26;19998;-66
2024/04/12 00:51:19;;;;;;;7.00;3.90;;;;;;;22.30;45.55;102941.44;5452548;26;20009;-65
2024/04/12 00:53:46;;;;;;;6.63;3.58;;;;;;;22.27;45.65;102942.63;5422325;26;20018;-66
2024/04/12 00:56:13;;;;;;;5.40;2.50;;;;;;;22.25;45.89;102943.78;5422222;26;20459;-66
2024/04/12 00:58:41;;;;;;;5.82;2.85;;;;;;;22.22;45.98;102939.47;5422856;26;20002;-65
2024/04/12 01:01:11;;;;;;;4.75;3.30;;;;;;;22.20;46.42;102940.63;5364445;26;20014;-66
2024/04/12 01:03:45;;;;;;;6.00;3.22;;;;;;;22.17;46.18;102936.34;5423891;26;20101;-67
2024/04/12 01:06:24;;;;;;;6.13;3.55;;;;;;;22.17;46.18;102939.06;5423678;26;19995;-66
2024/04/12 01:08:51;;;;;;;5.82;2.83;;;;;;;22.15;46.09;102930.19;5422995;26;20005;-65
2024/04/12 01:11:21;;;;;;;8.43;3.25;;;;;;;22.13;46.30;102915.84;5423339;26;19995;-66
2024/04/12 01:13:48;;;;;;;6.97;3.83;;;;;;;22.13;46.12;102918.56;5423445;26;20014;-66
2024/04/12 01:16:14;;;;;;;6.25;3.13;;;;;;;22.10;46.22;102918.88;5452352;26;20006;-66
2024/04/12 01:18:42;;;;;;;6.07;3.03;;;;;;;22.11;46.49;102908.81;5421672;26;20075;-66
2024/04/12 01:21:11;;;;;;;7.72;3.88;;;;;;;22.08;46.70;102909.13;5451555;26;20009;-66
2024/04/12 01:23:42;;;;;;;8.70;3.83;;;;;;;22.07;46.57;102907.38;5422996;26;19991;-66
2024/04/12 01:26:12;;;;;;;7.28;3.80;;;;;;;22.07;46.77;102912.84;5422783;26;20091;-66
2024/04/12 01:28:43;;;;;;;8.32;3.15;;;;;;;22.03;46.86;102906.81;5393250;26;20003;-66
2024/04/12 01:31:15;;;;;;;13.07;3.80;;;;;;;22.00;46.58;102897.09;5424241;26;20091;-66
2024/04/12 01:33:50;;;;;;;6.07;3.97;;;;;;;22.00;46.85;102898.94;5394229;26;20445;-67
2024/04/12 01:36:21;;;;;;;7.82;3.60;;;;;;;21.98;46.89;102900.97;5452600;26;19995;-65
2024/04/12 01:38:53;;;;;;;8.20;3.95;;;;;;;21.95;47.01;102898.56;5422265;26;20085;-65
2024/04/12 01:41:32;;;;;;;7.47;3.88;;;;;;;21.97;47.00;102908.31;5423515;26;20339;-65
2024/04/12 01:44:04;;;;;;;7.75;4.03;;;;;;;21.95;47.18;102915.78;5422731;26;19998;-65
2024/04/12 01:46:34;;;;;;;5.85;3.25;;;;;;;21.93;46.99;102906.91;5453643;26;19999;-65
2024/04/12 01:49:01;;;;;;;6.22;3.72;;;;;;;21.95;47.17;102904.00;5393138;26;20354;-65
2024/04/12 01:51:34;;;;;;;6.82;3.05;;;;;;;21.96;47.23;102905.75;5392550;26;19999;-65
2024/04/12 01:54:17;;;;;;;5.95;3.20;;;;;;;21.98;46.81;102903.72;5453537;26;20013;-66
2024/04/12 01:56:50;;;;;;;6.13;2.90;;;;;;;21.95;47.16;102893.97;5392007;26;20006;-65
2024/04/12 01:59:23;;;;;;;6.30;3.63;;;;;;;21.92;47.37;102887.94;5422994;26;20048;-65
2024/04/12 02:01:52;;;;;;;14.80;4.45;;;;;;;21.87;47.21;102884.81;5451439;26;20011;-66
2024/04/12 02:04:18;;;;;;;9.60;4.07;;;;;;;21.82;47.10;102874.34;5451699;26;20003;-66
2024/04/12 02:06:48;;;;;;;9.98;4.63;;;;;;;21.79;47.12;102871.91;5421422;26;19999;-65
2024/04/12 02:09:19;;;;;;;4.97;3.67;;;;;;;21.77;47.57;102862.16;5451325;26;20010;-65
2024/04/12 02:11:45;;;;;;;6.38;3.50;;;;;;;21.74;47.52;102867.91;5421839;26;20001;-66
2024/04/12 02:14:12;;;;;;;9.35;3.67;;;;;;;21.70;47.36;102861.03;5421163;26;20010;-67
2024/04/12 02:16:39;;;;;;;8.55;4.30;;;;;;;21.69;47.85;102856.59;5421546;26;20462;-67
2024/04/12 02:19:06;;;;;;;8.02;4.38;;;;;;;21.69;47.71;102867.53;5420906;26;20399;-65
2024/04/12 02:21:32;;;;;;;10.40;4.00;;;;;;;21.63;47.89;102858.06;5421370;26;19995;-65
2024/04/12 02:24:01;;;;;;;6.82;4.45;;;;;;;21.63;47.96;102858.06;5421043;26;20003;-65
2024/04/12 02:26:28;;;;;;;8.15;4.20;;;;;;;21.65;47.67;102871.56;5450921;26;20431;-66
2024/04/12 02:28:58;;;;;;;7.30;4.70;;;;;;;21.66;47.84;102867.81;5452439;26;19995;-65
2024/04/12 02:31:24;;;;;;;8.13;5.20;;;;;;;21.70;47.86;102877.41;5424078;26;20012;-65
2024/04/12 02:33:54;;;;;;;8.63;4.03;;;;;;;21.68;47.80;102874.84;5424352;26;19995;-66
2024/04/12 02:36:21;;;;;;;9.95;5.32;;;;;;;21.64;48.00;102872.56;5425410;26;19999;-65
2024/04/12 02:38:50;;;;;;;7.95;4.80;;;;;;;21.68;47.91;102880.28;5424329;26;19999;-65
2024/04/12 02:41:16;;;;;;;9.40;4.40;;;;;;;21.69;48.23;102881.16;5395278;26;20010;-66
2024/04/12 02:43:51;;;;;;;8.48;4.95;;;;;;;21.67;47.92;102875.84;5394528;26;20006;-65
2024/04/12 02:46:20;;;;;;;9.05;4.20;;;;;;;21.69;47.88;102881.16;5366696;26;19998;-65
2024/04/12 02:48:48;;;;;;;7.43;4.78;;;;;;;21.68;47.72;102884.88;5365488;26;20007;-65
2024/04/12 02:51:18;;;;;;;9.07;4.55;;;;;;;21.68;48.05;102884.88;5454397;26;20002;-65
2024/04/12 02:53:45;;;;;;;9.40;4.25;;;;;;;21.67;47.99;102888.63;5454206;26;20470;-66
2024/04/12 02:56:14;;;;;;;10.65;3.88;;;;;;;21.67;48.21;102888.63;5394310;26;20075;-66
2024/04/12 02:58:40;;;;;;;8.55;3.95;;;;;;;21.65;48.14;102888.78;5433469;26;20003;-66
2024/04/12 03:01:12;;;;;;;9.07;4.45;;;;;;;21.64;48.27;102884.31;5388316;26;20079;-65
2024/04/12 03:03:46;;;;;;;10.55;4.25;;;;;;;21.63;48.27;102892.69;5388382;26;20017;-66
2024/04/12 03:06:23;;;;;;;8.65;4.45;;;;;;;21.61;48.52;102890.09;5417176;26;20015;-65
2024/04/12 03:08:53;;;;;;;8.35;4.50;;;;;;;21.62;48.47;102888.22;5417820;26;20000;-66
2024/04/12 03:11:25;;;;;;;8.32;3.70;;;;;;;21.61;48.70;102889.25;5388385;26;20012;-65
2024/04/12 03:14:03;;;;;;;6.72;3.38;;;;;;;21.62;48.61;102882.75;5414158;26;20003;-66
2024/04/12 03:16:30;;;;;;;10.85;4.10;;;;;;;21.61;48.19;102878.34;5424593;26;20122;-67
2024/04/12 03:18:57;;;;;;;9.38;4.50;;;;;;;21.65;48.42;102891.50;5423492;26;20083;-65
2024/04/12 03:21:26;;;;;;;8.63;5.07;;;;;;;21.65;48.55;102879.72;5455546;26;20334;-67
2024/04/12 03:23:52;;;;;;;8.20;4.00;;;;;;;21.64;48.53;102878.00;5424070;26;19999;-65
2024/04/12 03:26:21;;;;;;;8.93;4.15;;;;;;;21.60;48.69;102866.56;5423632;26;19999;-65
2024/04/12 03:28:49;;;;;;;9.63;4.30;;;;;;;21.58;48.61;102867.72;5423979;26;20013;-65
2024/04/12 03:31:17;;;;;;;9.23;4.28;;;;;;;21.58;48.92;102873.19;5423709;26;20013;-65
2024/04/12 03:33:43;;;;;;;8.25;4.25;;;;;;;21.55;48.63;102870.75;5424047;26;20003;-65
2024/04/12 03:41:46;;;;;;;9.15;4.10;;;;;;;21.53;48.86;102870.03;5426733;26;20097;-66
2024/04/12 03:44:15;;;;;;;9.70;4.22;;;;;;;21.47;48.59;102855.97;5422969;26;20015;-66
2024/04/12 03:46:41;;;;;;;7.85;3.38;;;;;;;21.52;49.23;102858.28;5423559;26;20017;-66
2024/04/12 03:49:10;;;;;;;7.05;3.63;;;;;;;21.53;48.81;102845.47;5423457;26;20011;-66
2024/04/12 03:51:44;;;;;;;8.70;4.00;;;;;;;21.52;48.84;102854.69;5423448;26;20014;-65
2024/04/12 03:54:17;;;;;;;6.82;3.38;;;;;;;21.48;48.96;102852.25;5455117;26;20013;-66
2024/04/12 03:56:50;;;;;;;6.85;3.47;;;;;;;21.48;49.00;102852.25;5422998;26;19998;-67
2024/04/12 03:59:17;;;;;;;6.75;3.72;;;;;;;21.49;48.96;102853.13;5423736;26;20423;-65
2024/04/12 04:01:46;;;;;;;6.60;4.35;;;;;;;21.47;48.90;102847.81;5424655;26;20348;-65
2024/04/12 04:04:18;;;;;;;9.27;4.25;;;;;;;21.51;49.05;102844.78;5427246;26;20034;-65
2024/04/12 04:06:54;;;;;;;7.93;3.47;;;;;;;21.49;48.94;102844.94;5427355;26;20010;-66
2024/04/12 04:09:22;;;;;;;8.02;3.40;;;;;;;21.52;48.93;102860.13;5425036;26;20035;-64
2024/04/12 04:11:49;;;;;;;5.13;3.13;;;;;;;21.54;48.96;102849.94;5423348;26;19999;-65
2024/04/12 04:14:19;;;;;;;10.65;3.17;;;;;;;21.57;48.97;102855.09;5422770;26;20013;-65
2024/04/12 04:16:50;;;;;;;9.40;3.15;;;;;;;21.54;48.94;102845.34;5424364;26;20015;-66
2024/04/12 04:19:33;;;;;;;6.10;3.85;;;;;;;21.53;48.83;102842.75;5387708;26;20463;-66
2024/04/12 04:22:01;;;;;;;7.32;3.72;;;;;;;21.52;48.91;102847.38;5388462;26;20015;-65
2024/04/12 04:24:27;;;;;;;7.53;3.75;;;;;;;21.53;48.92;102850.94;5384680;26;20014;-65
2024/04/12 04:26:52;;;;;;;5.20;2.95;;;;;;;21.53;49.10;102840.03;5417226;26;20003;-65
2024/04/12 04:29:18;;;;;;;6.40;3.60;;;;;;;21.56;49.01;102847.91;5329171;26;20084;-66
2024/04/12 04:31:49;;;;;;;8.20;3.53;;;;;;;21.59;48.88;102848.47;5387116;26;20007;-65
2024/04/12 04:34:17;;;;;;;7.32;3.60;;;;;;;21.63;49.21;102849.03;5421993;26;20014;-66
2024/04/12 04:36:49;;;;;;;8.65;3.03;;;;;;;21.65;48.86;102841.53;5423070;26;20038;-65
2024/04/12 04:39:21;;;;;;;8.15;3.25;;;;;;;21.67;48.81;102844.97;5423233;26;20109;-66
2024/04/12 04:41:48;;;;;;;8.18;3.60;;;;;;;21.70;48.93;102844.66;5452704;26;19994;-65
2024/04/12 04:44:17;;;;;;;7.70;3.10;;;;;;;21.72;48.73;102837.22;5393232;26;19998;-65
2024/04/12 04:46:44;;;;;;;8.13;3.75;;;;;;;21.69;48.62;102829.31;5393652;26;20071;-66
2024/04/12 04:49:13;;;;;;;7.65;3.00;;;;;;;21.72;48.45;102826.28;5393348;26;20014;-65
2024/04/12 04:51:41;;;;;;;5.43;2.70;;;;;;;21.72;48.68;102829.03;5423074;26;19999;-65
2024/04/12 04:54:13;;;;;;;5.00;2.58;;;;;;;21.70;48.66;102828.28;5423349;26;20043;-67
2024/04/12 04:56:46;;;;;;;5.77;3.03;;;;;;;21.71;48.72;102835.47;5423706;26;20006;-66
2024/04/12 04:59:18;;;;;;;6.30;2.53;;;;;;;21.72;48.68;102834.47;5422207;26;20212;-66
2024/04/12 05:01:45;;;;;;;4.22;2.60;;;;;;;21.75;48.62;102836.88;5422302;26;20009;-65
2024/04/12 05:04:15;;;;;;;6.72;3.08;;;;;;;21.75;48.62;102828.69;5452390;26;20002;-65
2024/04/12 05:06:42;;;;;;;5.78;3.65;;;;;;;21.75;48.58;102835.00;5452699;26;20446;-66
2024/04/12 05:09:09;;;;;;;7.07;3.17;;;;;;;21.76;48.83;102844.06;5422868;26;20002;-66
2024/04/12 05:11:38;;;;;;;6.05;2.72;;;;;;;21.79;48.71;102843.75;5453452;26;20440;-66
2024/04/12 05:14:13;;;;;;;9.25;3.53;;;;;;;21.78;48.62;102842.91;5452375;26;20015;-65
2024/04/12 05:16:43;;;;;;;8.32;3.15;;;;;;;21.80;49.21;102845.47;5453145;26;20010;-66
2024/04/12 05:19:08;;;;;;;7.60;3.90;;;;;;;21.80;48.81;102835.41;5392460;26;20400;-66
2024/04/12 05:21:38;;;;;;;8.75;3.05;;;;;;;21.82;48.47;102843.44;5453689;26;20002;-65
2024/04/12 05:24:10;;;;;;;5.70;2.75;;;;;;;21.79;48.67;102843.75;5422744;26;20003;-65
2024/04/12 05:26:41;;;;;;;10.00;2.90;;;;;;;21.84;48.82;102855.06;5435816;26;20003;-68
2024/04/12 05:29:09;;;;;;;9.10;3.45;;;;;;;21.84;48.75;102864.13;5393659;26;20342;-66
2024/04/12 05:31:35;;;;;;;8.35;3.03;;;;;;;21.86;48.80;102866.72;5422508;26;20002;-66
2024/04/12 05:34:01;;;;;;;4.25;2.50;;;;;;;21.91;48.41;102865.28;5423143;26;20003;-67
2024/04/12 05:36:32;;;;;;;5.25;2.85;;;;;;;21.93;48.50;102867.84;5452323;26;19998;-66
2024/04/12 05:39:08;;;;;;;5.78;3.47;;;;;;;21.97;48.55;102861.91;5453955;26;20013;-64
2024/04/12 05:41:44;;;;;;;4.72;2.70;;;;;;;21.98;48.78;102860.91;5454007;26;20003;-65
2024/04/12 05:44:14;;;;;;;11.10;5.10;;;;;;;21.98;48.29;102849.97;5423567;26;19998;-64
2024/04/12 05:46:41;;;;;;;6.65;3.45;;;;;;;22.03;48.60;102868.63;5392557;26;20011;-64
2024/04/12 05:49:10;;;;;;;8.85;3.45;;;;;;;22.03;48.54;102857.69;5422336;26;19999;-69
2024/04/12 05:51:41;;;;;;;9.30;4.32;;;;;;;22.04;48.51;102853.97;5423027;26;20068;-68
2024/04/12 05:54:15;;;;;;;10.02;2.92;;;;;;;22.07;48.53;102856.38;5422383;26;20006;-69
2024/04/12 05:56:44;;;;;;;10.55;3.08;;;;;;;22.09;48.56;102861.69;5423121;26;20002;-68
2024/04/12 05:59:13;;;;;;;7.30;3.47;;;;;;;22.10;48.35;102869.72;5421085;26;20323;-68
2024/04/12 06:01:43;;;;;;;6.32;3.80;;;;;;;22.13;48.33;102857.63;5422446;26;20013;-67
2024/04/12 06:04:23;;;;;;;6.70;3.92;;;;;;;22.15;48.91;102867.38;5421250;26;20002;-68
2024/04/12 06:06:54;;;;;;;10.50;4.57;;;;;;;22.17;48.56;102868.09;5421875;26;20003;-69
2024/04/12 06:09:20;;;;;;;10.60;3.63;;;;;;;22.22;48.14;102871.19;5451145;26;20014;-68
2024/04/12 06:11:56;;;;;;;12.15;4.32;;;;;;;22.22;48.58;102863.00;5421139;26;20070;-68
2024/04/12 06:14:23;;;;;;;6.47;3.83;;;;;;;22.22;48.76;102857.53;5391483;26;20006;-68
2024/04/12 06:16:51;;;;;;;5.45;3.38;;;;;;;22.25;48.64;102862.69;5421215;26;20034;-68
2024/04/12 06:19:18;;;;;;;8.40;3.80;;;;;;;22.24;48.41;102858.28;5392000;26;20021;-68
2024/04/12 06:21:45;;;;;;;7.18;4.10;;;;;;;22.27;48.34;102859.84;5421446;26;20326;-68
2024/04/12 06:24:26;;;;;;;8.73;3.33;;;;;;;22.31;48.30;102862.09;5421427;26;20499;-68
2024/04/12 06:26:54;;;;;;;7.88;4.05;;;;;;;22.36;48.40;102865.19;5423200;26;20035;-68
2024/04/12 06:29:20;;;;;;;10.80;4.50;;;;;;;22.39;48.35;102861.31;5392588;26;19995;-70
2024/04/12 06:31:46;;;;;;;10.70;3.35;;;;;;;22.41;48.67;102857.41;5421965;26;20017;-69
2024/04/12 06:34:17;;;;;;;7.55;3.05;;;;;;;22.43;48.52;102846.31;5391933;26;20014;-68
2024/04/12 06:36:46;;;;;;;7.10;4.47;;;;;;;22.43;48.46;102839.00;5422798;26;20013;-68
2024/04/12 06:39:13;;;;;;;8.43;4.03;;;;;;;22.48;48.24;102836.63;5391625;26;19999;-68
2024/04/12 06:41:39;;;;;;;5.25;3.28;;;;;;;22.51;48.38;102841.78;5452862;26;20081;-67
2024/04/12 06:44:05;;;;;;;8.00;3.13;;;;;;;22.54;48.57;102846.06;5421100;26;19994;-68
2024/04/12 06:46:32;;;;;;;7.57;3.58;;;;;;;22.55;48.19;102843.19;5421086;26;20034;-68
2024/04/12 06:49:07;;;;;;;7.35;3.40;;;;;;;22.62;48.18;102849.72;5421469;26;20334;-68
2024/04/12 06:52:02;;;;;;;7.03;4.13;;;;;;;22.70;48.19;102845.41;5423467;26;20014;-70
2024/04/12 06:54:25;;;;;;;8.00;4.28;;;;;;;22.77;48.31;102846.47;5396575;26;20434;-71
2024/04/12 06:56:51;;;;;;;5.10;3.40;;;;;;;22.84;48.26;102850.25;5420661;26;20009;-71
2024/04/12 06:59:18;;;;;;;8.18;3.33;;;;;;;22.89;48.21;102845.19;5361853;26;19995;-72
2024/04/12 07:01:46;;;;;;;9.77;3.83;;;;;;;22.97;48.18;102840.63;5391067;26;19995;-70
2024/04/12 07:04:11;;;;;;;6.68;3.35;;;;;;;23.03;47.62;102845.44;5420358;26;20002;-71
2024/04/12 07:06:37;;;;;;;13.20;3.92;;;;;;;23.10;47.84;102852.00;5452062;26;20013;-71
2024/04/12 07:09:08;;;;;;;7.95;3.50;;;;;;;23.20;47.75;102860.06;5451856;26;20466;-71
2024/04/12 07:11:39;;;;;;;10.77;2.80;;;;;;;23.28;47.42;102843.72;5452174;26;19995;-70
2024/04/12 07:14:08;;;;;;;8.95;3.20;;;;;;;23.33;47.53;102846.81;5451601;26;19995;-71
2024/04/12 07:16:35;;;;;;;5.57;2.95;;;;;;;23.43;47.46;102850.31;5420114;26;20010;-71
2024/04/12 07:19:09;;;;;;;10.07;4.03;;;;;;;23.49;47.22;102846.94;5423319;26;20009;-70
2024/04/12 07:21:38;;;;;;;5.95;2.97;;;;;;;23.56;47.78;102850.69;5425134;26;20454;-71
2024/04/12 07:24:03;;;;;;;7.45;3.03;;;;;;;23.62;47.73;102850.06;5453561;26;19995;-71
2024/04/12 07:26:29;;;;;;;14.05;4.18;;;;;;;23.67;47.58;102850.41;5423774;26;20010;-71
2024/04/12 07:29:01;;;;;;;6.40;3.25;;;;;;;23.70;47.44;102854.72;5455334;26;20010;-71
2024/04/12 07:31:30;;;;;;;;;;;;;;;23.77;47.35;102859.34;5365842;26;20007;-71
2024/04/12 07:33:59;;;;;;;5.88;3.30;;;;;;;23.83;47.21;102856.97;5424553;26;19931;-71
2024/04/12 07:36:30;;;;;;;7.47;3.22;;;;;;;23.87;46.85;102861.94;5423837;26;20456;-71
2024/04/12 07:39:07;;;;;;;8.50;4.82;;;;;;;23.89;47.11;102861.78;5423857;26;20013;-71
2024/04/12 07:41:37;;;;;;;11.63;5.15;;;;;;;23.95;47.45;102855.66;5455590;26;19998;-71
2024/04/12 07:44:04;;;;;;;6.40;3.17;;;;;;;23.96;46.88;102852.72;5455077;26;20031;-71
2024/04/12 07:46:33;;;;;;;6.63;2.80;;;;;;;23.94;46.95;102864.88;5455078;26;20021;-70
2024/04/12 07:49:02;;;;;;;10.40;3.40;;;;;;;23.95;47.17;102866.59;5393439;26;20022;-71
2024/04/12 07:51:31;;;;;;;7.40;2.58;;;;;;;23.98;47.33;102863.53;5423289;26;20339;-71
2024/04/12 07:54:03;;;;;;;9.20;3.13;;;;;;;24.01;46.84;102865.94;5394548;26;19999;-73
2024/04/12 07:56:37;;;;;;;8.20;2.83;;;;;;;23.98;46.83;102866.28;5424010;26;19994;-70
2024/04/12 07:59:25;;;;;;;7.13;3.08;;;;;;;23.97;47.07;102876.34;5425291;26;20014;-71
2024/04/12 08:01:51;;;;;;;6.95;2.42;;;;;;;23.99;46.81;102873.44;5453478;26;19999;-68
2024/04/12 08:04:23;;;;;;;7.22;2.50;;;;;;;23.98;46.54;102871.75;5393554;26;20014;-69
2024/04/12 08:06:57;;;;;;;7.68;2.08;;;;;;;23.96;46.72;102866.41;5424670;26;20404;-68
2024/04/12 08:09:40;;;;;;;5.85;2.15;;;;;;;23.99;46.67;102867.97;5393049;26;20003;-69
2024/04/12 08:12:17;;;;;;;3.17;2.10;;;;;;;24.02;46.69;102867.63;5422833;26;20014;-69
2024/04/12 08:14:54;;;;;;;4.57;2.22;;;;;;;24.07;46.60;102879.78;5452806;26;20173;-68
2024/04/12 08:17:23;;;;;;;6.00;1.88;;;;;;;24.10;47.01;102870.41;5425518;26;19998;-68
2024/04/12 08:20:12;;;;;;;2.88;2.08;;;;;;;24.12;46.62;102869.22;5423010;26;19998;-68
2024/04/12 08:22:38;;;;;;;5.72;2.35;;;;;;;24.14;46.10;102871.81;5454163;26;20014;-68
2024/04/12 08:25:06;;;;;;;4.32;2.50;;;;;;;24.16;46.97;102875.22;5452778;26;19994;-68
2024/04/12 08:27:34;;;;;;;5.07;2.10;;;;;;;24.17;46.42;102875.06;5452759;26;20013;-68
2024/04/12 08:30:00;;;;;;;5.30;2.13;;;;;;;24.17;46.87;102877.81;5423210;26;19999;-68
2024/04/12 08:32:31;;;;;;;7.22;2.35;;;;;;;24.17;46.73;102876.94;5422569;26;20003;-68
2024/04/12 08:35:06;;;;;;;7.05;1.92;;;;;;;24.20;46.81;102877.44;5423853;26;20026;-69
2024/04/12 08:37:36;;;;;;;5.05;1.52;;;;;;;24.24;46.29;102878.84;5422198;26;20465;-69
2024/04/12 08:40:08;;;;;;;11.13;2.10;;;;;;;24.31;46.70;102879.03;5423747;26;20436;-68
2024/04/12 08:42:38;;;;;;;2.93;1.80;;;;;;;24.38;46.32;102874.56;5454339;26;20011;-68
2024/04/12 08:45:12;;;;;;;5.93;1.95;;;;;;;24.46;46.18;102870.97;5422558;26;19999;-69
2024/04/12 08:48:04;;;;;;;8.10;2.00;;;;;;;24.53;46.42;102869.28;5452174;26;20002;-68
2024/04/12 08:50:31;;;;;;;4.63;1.63;;;;;;;24.60;45.69;102860.19;5425328;26;19991;-69
2024/04/12 08:52:58;;;;;;;5.10;2.38;;;;;;;24.70;45.66;102866.38;5392754;26;20109;-69
2024/04/12 08:55:24;;;;;;;6.22;1.98;;;;;;;24.81;45.95;102866.06;5422289;26;20439;-69
2024/04/12 08:58:00;;;;;;;5.20;1.77;;;;;;;24.84;46.05;102860.22;5362575;26;20007;-69
2024/04/12 09:00:34;;;;;;;5.50;1.50;;;;;;;24.93;45.81;102861.06;5353840;26;20000;-69
2024/04/12 09:03:24;;;;;;;5.22;2.33;;;;;;;24.99;46.04;102856.75;5381085;26;20004;-69
2024/04/12 09:05:52;;;;;;;4.05;1.58;;;;;;;25.07;45.66;102854.03;5385093;26;20036;-69
2024/04/12 09:08:18;;;;;;;4.80;1.60;;;;;;;25.14;45.97;102852.28;5352234;26;20004;-69
2024/04/12 09:10:44;;;;;;;7.13;2.33;;;;;;;25.18;45.48;102851.75;5351709;26;20451;-70
2024/04/12 09:13:14;;;;;;;3.80;1.73;;;;;;;25.25;45.38;102851.91;5351938;26;20012;-68
2024/04/12 09:15:43;;;;;;;4.60;1.73;;;;;;;25.34;45.56;102851.72;5352514;26;20015;-68
2024/04/12 09:18:19;;;;;;;7.35;2.13;;;;;;;25.40;45.11;102850.97;5381706;26;20371;-69
2024/04/12 09:20:52;;;;;;;7.15;2.50;;;;;;;25.52;45.04;102848.75;5380582;26;20012;-68
2024/04/12 09:23:32;;;;;;;4.50;1.70;;;;;;;25.63;44.78;102845.59;5380715;26;20436;-68
2024/04/12 09:25:59;;;;;;;5.50;2.10;;;;;;;25.79;44.96;102851.03;5382343;26;20069;-69
2024/04/12 09:28:32;;;;;;;5.25;1.58;;;;;;;25.96;44.65;102851.81;5380865;26;20000;-68
2024/04/12 09:33:51;;;;;;;4.93;1.60;;;;;;;26.18;44.61;102856.50;5384851;26;19940;-69
2024/04/12 09:36:50;;;;;;;2.90;1.58;;;;;;;26.32;44.40;102857.59;5380725;26;20001;-70
2024/04/12 09:39:16;;;;;;;4.10;1.50;;;;;;;26.42;43.76;102849.94;5379779;26;19996;-68
2024/04/12 09:41:53;;;;;;;5.93;1.70;;;;;;;26.51;43.92;102854.34;5380797;26;19996;-68
2024/04/12 09:44:26;;;;;;;5.47;1.70;;;;;;;26.61;43.95;102853.06;5382516;26;20023;-68
2024/04/12 10:39:49;;;;;;;2.67;1.08;;;;;;;26.98;42.66;102846.72;5419152;26;20031;-70
2024/04/12 10:42:19;;;;;;;3.40;1.00;;;;;;;27.11;42.73;102838.66;5414687;26;19999;-70
2024/04/12 10:44:50;;;;;;;2.03;0.90;;;;;;;27.37;42.33;102840.06;5415318;26;19996;-70
2024/04/12 10:47:20;;;;;;;2.15;0.95;;;;;;;27.81;41.99;102840.03;5414513;26;20328;-70
2024/04/12 10:49:49;;;;;;;5.13;1.27;;;;;;;28.58;40.95;102832.84;5415621;26;20014;-70
2024/04/12 10:52:16;;;;;;;2.00;1.10;;;;;;;29.38;39.65;102831.34;5416480;26;19999;-70
2024/04/12 10:54:47;;;;;;;3.47;1.00;;;;;;;29.94;39.65;102820.09;5418309;26;20003;-70
2024/04/12 10:57:18;;;;;;;2.58;0.98;;;;;;;30.39;38.82;102827.66;5418164;26;20006;-70
2024/04/12 10:59:44;;;;;;;5.53;1.15;;;;;;;30.74;38.64;102820.00;5420122;26;19999;-70
2024/04/12 11:02:12;;;;;;;2.35;0.90;;;;;;;31.09;38.50;102818.72;5418053;26;19999;-70
2024/04/12 11:07:24;;;;;;;3.70;0.88;;;;;;;32.05;37.20;102821.56;5418628;26;20011;-70
2024/04/12 11:10:00;;;;;;;2.22;1.05;;;;;;;32.28;36.98;102813.47;5420128;26;20080;-70
2024/04/12 11:12:30;;;;;;;1.70;1.02;;;;;;;32.78;36.41;102800.47;5418237;26;20013;-70
2024/04/12 11:31:27;;;;;;;1.52;0.60;;;;;;;33.36;34.67;102781.50;5417731;26;20077;-70
2024/04/12 11:33:52;;;;;;;4.15;1.00;;;;;;;33.08;35.32;102786.75;5388974;26;20003;-70
2024/04/12 11:36:20;;;;;;;2.83;0.80;;;;;;;32.51;35.35;102783.19;5418255;26;20045;-70
2024/04/12 11:38:47;;;;;;;2.72;0.98;;;;;;;32.11;35.85;102784.56;5417335;26;19999;-70
2024/04/12 11:41:15;;;;;;;1.88;0.68;;;;;;;31.68;35.87;102785.28;5387962;26;20076;-70
2024/04/12 11:43:45;;;;;;;2.72;0.93;;;;;;;31.24;36.16;102790.72;5388397;26;20447;-70
2024/04/12 11:46:14;;;;;;;3.10;0.80;;;;;;;30.82;36.27;102789.31;5387909;26;20017;-70
2024/04/12 11:48:43;;;;;;;2.85;1.20;;;;;;;30.69;36.13;102780.19;5417406;26;19996;-70
2024/04/12 11:51:15;;;;;;;2.97;0.90;;;;;;;30.77;36.17;102788.25;5447202;26;19999;-70
2024/04/12 11:53:44;;;;;;;1.60;0.52;;;;;;;30.53;35.96;102787.03;5416955;26;20004;-70
2024/04/12 11:56:09;;;;;;;5.00;1.02;;;;;;;30.35;36.09;102790.38;5417149;26;20091;-70
2024/04/12 11:58:35;;;;;;;4.10;0.90;;;;;;;30.28;36.51;102778.47;5417004;26;19999;-70
2024/04/12 12:01:04;;;;;;;3.20;1.00;;;;;;;31.27;35.73;102786.69;5417227;26;19999;-70
2024/04/12 12:03:32;;;;;;;2.42;1.17;;;;;;;31.96;34.52;102778.47;5417982;26;20004;-70
2024/04/12 12:06:06;;;;;;;3.30;1.33;;;;;;;32.58;34.15;102772.91;5419128;26;20004;-70
2024/04/12 12:08:37;;;;;;;1.52;1.08;;;;;;;32.87;34.15;102760.22;5389356;26;20000;-70
2024/04/12 12:11:06;;;;;;;2.67;1.10;;;;;;;32.47;34.92;102781.13;5417052;26;20018;-70
2024/04/12 12:13:32;;;;;;;2.45;0.93;;;;;;;32.11;35.20;102771.56;5416682;26;20022;-70
2024/04/12 12:15:58;;;;;;;4.82;1.45;;;;;;;31.78;35.36;102775.59;5417030;26;20519;-70
2024/04/12 12:18:27;;;;;;;3.50;1.10;;;;;;;31.48;35.36;102767.03;5416819;26;20003;-70
2024/04/12 12:20:53;;;;;;;6.60;2.25;;;;;;;31.32;35.51;102760.03;5417542;26;20000;-70
2024/04/12 12:23:19;;;;;;;2.55;0.77;;;;;;;31.27;35.19;102751.50;5418540;26;20335;-70
2024/04/12 12:25:47;;;;;;;3.17;1.15;;;;;;;31.11;35.18;102746.47;5416762;26;20004;-70
2024/04/12 12:28:13;;;;;;;1.05;0.82;;;;;;;30.88;35.45;102744.16;5416556;26;20064;-70
2024/04/12 12:30:39;;;;;;;3.65;1.52;;;;;;;30.75;35.26;102746.97;5416847;26;20073;-70
2024/04/12 12:33:07;;;;;;;4.78;1.67;;;;;;;30.53;35.75;102743.59;5416510;26;20000;-70
2024/04/12 12:35:35;;;;;;;1.13;0.82;;;;;;;30.33;35.89;102742.72;5416586;26;20026;-70
2024/04/12 12:38:01;;;;;;;3.90;0.90;;;;;;;30.12;35.45;102745.72;5387110;26;19999;-70
2024/04/12 12:40:30;;;;;;;1.73;1.02;;;;;;;29.96;35.93;102746.09;5416782;26;20451;-70
2024/04/12 12:42:55;;;;;;;2.13;1.00;;;;;;;29.87;35.84;102747.38;5416531;26;20043;-70
2024/04/12 12:45:21;;;;;;;2.92;1.10;;;;;;;29.86;36.11;102746.53;5416280;26;20466;-70
2024/04/12 12:47:47;;;;;;;4.78;1.10;;;;;;;29.88;35.81;102746.31;5418186;26;20015;-70
2024/04/12 12:50:23;;;;;;;4.90;1.25;;;;;;;29.81;35.57;102731.63;5446318;26;20003;-70
2024/04/12 12:52:49;;;;;;;2.47;1.00;;;;;;;29.77;36.17;102733.91;5416706;26;20335;-70
2024/04/12 12:55:23;;;;;;;4.03;1.20;;;;;;;29.70;35.97;102737.75;5386611;26;20007;-70
2024/04/12 12:58:11;;;;;;;3.55;1.42;;;;;;;29.61;36.18;102727.94;5416295;26;20351;-70